Time;durP1;ratioP1;P1;durP2;ratioP2;P2;SDS_P1;SDS_P2;PMS_P1;PMS_P2;Temp;Humidity;BMP_temperature;BMP_pressure;BME280_temperature;BME280_humidity;BME280_pressure;Samples;Min_cycle;Max_cycle;Signal;HPM_P1;HPM_P2
2021/12/21 00:02:02;;;;;;;5.47;3.55;;;2.50;99.90;;;;;;4993580;28;20274;-77
2021/12/21 00:04:28;;;;;;;3.30;2.95;;;2.50;99.90;;;;;;4992342;28;20277;-77
2021/12/21 00:06:54;;;;;;;4.73;2.97;;;2.50;99.90;;;;;;4991990;28;20202;-77
2021/12/21 00:09:19;;;;;;;4.97;2.60;;;2.50;99.90;;;;;;4992401;28;20191;-77
2021/12/21 00:11:45;;;;;;;5.87;3.20;;;2.40;99.90;;;;;;4972406;28;20180;-77
2021/12/21 00:14:18;;;;;;;4.53;2.60;;;2.40;99.90;;;;;;4973684;28;20292;-77
2021/12/21 00:19:43;;;;;;;5.10;2.80;;;2.40;99.90;;;;;;4974278;28;20238;-73
2021/12/21 00:22:58;;;;;;;5.18;3.10;;;2.40;99.90;;;;;;4973741;28;20323;-73
2021/12/21 00:25:12;;;;;;;4.85;2.90;;;2.30;99.90;;;;;;4971964;28;20539;-73
2021/12/21 00:27:38;;;;;;;4.70;2.40;;;2.40;99.90;;;;;;4973599;28;20186;-73
2021/12/21 00:30:05;;;;;;;5.77;2.63;;;2.30;99.90;;;;;;4956862;28;20179;-73
2021/12/21 00:32:30;;;;;;;6.38;2.67;;;2.30;99.90;;;;;;4974443;28;20599;-74
2021/12/21 00:34:56;;;;;;;4.60;3.47;;;2.30;99.90;;;;;;4974133;28;20548;-74
2021/12/21 00:37:23;;;;;;;3.67;2.57;;;2.30;99.90;;;;;;4973908;28;20175;-74
2021/12/21 00:39:49;;;;;;;5.13;3.55;;;2.30;99.90;;;;;;4975093;28;20176;-73
2021/12/21 00:42:14;;;;;;;3.63;2.70;;;2.30;99.90;;;;;;4974260;28;20188;-74
2021/12/21 00:44:41;;;;;;;6.00;3.07;;;2.30;99.90;;;;;;4972673;28;20262;-73
2021/12/21 00:47:07;;;;;;;3.85;2.95;;;2.30;99.90;;;;;;4973026;28;20568;-73
2021/12/21 00:49:32;;;;;;;4.60;2.73;;;2.30;99.90;;;;;;4988836;28;20771;-74
2021/12/21 00:51:58;;;;;;;6.53;2.87;;;2.20;99.90;;;;;;4988199;28;20599;-74
2021/12/21 00:54:24;;;;;;;4.40;3.30;;;2.20;99.90;;;;;;4988319;28;20176;-73
2021/12/21 00:56:50;;;;;;;7.30;3.80;;;2.20;99.90;;;;;;4987908;28;20222;-75
2021/12/21 00:59:15;;;;;;;6.87;3.10;;;2.20;99.90;;;;;;4980854;28;20282;-75
2021/12/21 01:01:44;;;;;;;6.20;3.00;;;2.20;99.90;;;;;;4991366;28;20645;-74
2021/12/21 01:04:23;;;;;;;3.40;2.47;;;2.20;99.90;;;;;;4987693;28;20659;-74
2021/12/21 01:07:15;;;;;;;3.78;2.55;;;2.20;99.90;;;;;;4972632;28;20178;-74
2021/12/21 01:15:19;;;;;;;4.75;2.88;;;2.30;99.90;;;;;;4991213;28;20528;-75
2021/12/21 01:18:00;;;;;;;3.60;2.25;;;2.20;99.90;;;;;;4991178;28;20278;-74
2021/12/21 01:20:40;;;;;;;6.15;3.58;;;2.20;99.90;;;;;;4992464;28;20636;-76
2021/12/21 01:23:37;;;;;;;4.70;2.90;;;2.20;99.90;;;;;;4991625;28;20621;-75
2021/12/21 01:26:08;;;;;;;4.90;3.15;;;2.20;99.90;;;;;;4989906;28;20190;-75
2021/12/21 01:28:48;;;;;;;5.45;2.92;;;2.10;99.90;;;;;;4992203;28;20175;-75
2021/12/21 01:34:09;;;;;;;6.30;3.25;;;2.10;99.90;;;;;;4991861;28;20253;-73
2021/12/21 01:36:37;;;;;;;4.72;2.55;;;2.00;99.90;;;;;;5030372;23;20384;-77
2021/12/21 01:49:52;;;;;;;5.55;2.80;;;2.10;99.90;;;;;;4977705;28;20261;-77
2021/12/21 01:52:23;;;;;;;3.23;2.50;;;2.10;99.90;;;;;;4977798;28;20597;-77
2021/12/21 01:54:50;;;;;;;3.75;2.78;;;2.10;99.90;;;;;;5011038;28;20198;-77
2021/12/21 01:57:16;;;;;;;4.72;2.50;;;2.10;99.90;;;;;;5011083;28;20162;-77
2021/12/21 01:59:44;;;;;;;3.90;3.20;;;2.00;99.90;;;;;;4993815;28;20216;-77
2021/12/21 02:02:11;;;;;;;5.72;2.53;;;2.00;99.90;;;;;;4993880;28;20581;-77
2021/12/21 02:04:38;;;;;;;4.75;2.85;;;2.00;99.90;;;;;;5010988;28;20646;-77
2021/12/21 02:07:06;;;;;;;4.30;3.00;;;2.00;99.90;;;;;;4993174;28;20170;-77
2021/12/21 02:09:41;;;;;;;3.75;2.65;;;2.10;99.90;;;;;;4993498;28;20899;-77
2021/12/21 02:12:13;;;;;;;5.00;2.88;;;2.00;99.90;;;;;;5011386;28;20220;-77
2021/12/21 02:14:40;;;;;;;3.72;2.80;;;2.00;99.90;;;;;;4977177;28;20208;-77
2021/12/21 02:17:40;;;;;;;3.70;2.58;;;2.00;99.90;;;;;;4993463;28;20171;-77
2021/12/21 02:20:17;;;;;;;3.47;2.35;;;2.00;99.90;;;;;;4993543;28;20194;-77
2021/12/21 02:22:53;;;;;;;5.30;3.33;;;1.90;99.90;;;;;;4993567;28;20197;-77
2021/12/21 02:27:56;;;;;;;7.47;4.03;;;1.90;99.90;;;;;;4993740;28;20185;-77
2021/12/21 02:30:23;;;;;;;6.10;4.22;;;1.90;99.90;;;;;;4977277;28;20173;-77
2021/12/21 02:32:49;;;;;;;5.47;3.15;;;1.80;99.90;;;;;;5011102;28;20170;-77
2021/12/21 02:35:14;;;;;;;5.37;3.23;;;1.80;99.90;;;;;;4993788;28;20263;-77
2021/12/21 02:37:40;;;;;;;6.10;2.93;;;1.80;99.90;;;;;;5013835;28;20635;-77
2021/12/21 02:40:06;;;;;;;4.60;2.70;;;1.80;99.90;;;;;;4997710;28;20650;-76
2021/12/21 02:42:32;;;;;;;4.40;3.05;;;1.80;99.90;;;;;;5014893;28;20661;-77
2021/12/21 02:44:58;;;;;;;4.37;3.20;;;1.80;99.90;;;;;;4981301;28;20194;-77
2021/12/21 02:47:24;;;;;;;4.80;3.03;;;1.80;99.90;;;;;;5014353;28;20171;-77
2021/12/21 02:49:51;;;;;;;4.43;2.72;;;1.80;99.90;;;;;;5014968;28;20265;-77
2021/12/21 02:52:16;;;;;;;3.97;3.47;;;1.80;99.90;;;;;;5014726;28;20252;-77
2021/12/21 02:54:42;;;;;;;3.27;2.60;;;1.80;99.90;;;;;;4997226;28;20986;-77
2021/12/21 02:57:08;;;;;;;7.60;3.38;;;1.80;99.90;;;;;;4980327;28;20182;-77
2021/12/21 02:59:34;;;;;;;7.53;3.20;;;1.80;99.90;;;;;;4996975;28;20290;-77
2021/12/21 03:01:59;;;;;;;4.20;3.30;;;1.80;99.90;;;;;;5014513;28;20644;-78
2021/12/21 03:04:25;;;;;;;4.40;2.40;;;1.90;99.90;;;;;;5012701;28;20631;-77
2021/12/21 03:07:20;;;;;;;5.03;3.20;;;1.80;99.90;;;;;;5009214;28;20225;-77
2021/12/21 03:09:40;;;;;;;3.30;2.45;;;1.80;99.90;;;;;;4996819;28;20588;-77
2021/12/21 03:14:50;;;;;;;4.03;3.08;;;1.80;99.90;;;;;;4996955;28;20244;-77
2021/12/21 03:17:16;;;;;;;8.13;2.70;;;1.70;99.90;;;;;;4979886;28;20209;-77
2021/12/21 03:19:42;;;;;;;6.30;3.33;;;1.70;99.90;;;;;;5014451;28;20230;-77
2021/12/21 03:22:09;;;;;;;5.57;3.50;;;1.70;99.90;;;;;;4980301;28;20585;-77
2021/12/21 03:24:35;;;;;;;4.07;2.78;;;1.70;99.90;;;;;;5013912;28;20171;-77
2021/12/21 03:27:03;;;;;;;3.90;3.00;;;1.70;99.90;;;;;;5013576;28;20217;-77
2021/12/21 03:29:29;;;;;;;3.75;2.85;;;1.60;99.90;;;;;;5014288;28;20177;-77
2021/12/21 03:31:55;;;;;;;3.83;2.72;;;1.60;99.90;;;;;;4964584;28;20182;-77
2021/12/21 03:34:22;;;;;;;4.15;2.97;;;1.60;99.90;;;;;;4980153;28;20518;-77
2021/12/21 03:36:49;;;;;;;3.15;2.50;;;1.70;99.90;;;;;;5012183;28;20212;-77
2021/12/21 03:39:19;;;;;;;4.20;2.45;;;1.60;99.90;;;;;;5012583;28;20202;-79
2021/12/21 03:41:51;;;;;;;4.82;3.47;;;1.60;99.90;;;;;;5014322;28;20170;-77
2021/12/21 03:44:19;;;;;;;3.92;2.30;;;1.60;99.90;;;;;;5012729;28;20204;-77
2021/12/21 03:46:50;;;;;;;4.55;2.45;;;1.60;99.90;;;;;;5012408;28;20193;-77
2021/12/21 03:51:54;;;;;;;4.20;2.70;;;1.70;99.90;;;;;;5013793;28;20170;-77
2021/12/21 03:54:19;;;;;;;4.37;2.53;;;1.70;99.90;;;;;;5013316;28;20205;-77
2021/12/21 03:56:48;;;;;;;3.20;2.70;;;1.60;99.90;;;;;;5013434;28;20321;-77
2021/12/21 03:59:14;;;;;;;6.72;3.38;;;1.60;99.90;;;;;;5012212;28;20237;-78
2021/12/21 04:01:40;;;;;;;3.77;2.57;;;1.60;99.90;;;;;;5012301;28;20271;-77
2021/12/21 04:04:07;;;;;;;3.97;2.63;;;1.60;99.90;;;;;;5012920;28;20569;-78
2021/12/21 04:06:34;;;;;;;5.18;3.05;;;1.60;99.90;;;;;;4978748;28;20194;-78
2021/12/21 04:09:00;;;;;;;4.35;3.10;;;1.60;99.90;;;;;;4995844;28;20193;-78
2021/12/21 04:11:26;;;;;;;3.72;2.78;;;1.60;99.90;;;;;;5013363;28;20499;-78
2021/12/21 04:13:52;;;;;;;3.77;2.53;;;1.60;99.90;;;;;;5012893;28;20167;-78
2021/12/21 04:16:17;;;;;;;7.00;2.78;;;1.60;99.90;;;;;;5012963;28;20588;-78
2021/12/21 04:18:43;;;;;;;4.43;3.00;;;1.60;99.90;;;;;;5012764;28;20293;-77
2021/12/21 04:21:11;;;;;;;6.20;2.47;;;1.60;99.90;;;;;;4995706;28;20740;-78
2021/12/21 04:23:39;;;;;;;4.30;3.33;;;1.60;99.90;;;;;;5011800;28;20170;-78
2021/12/21 04:26:05;;;;;;;4.18;2.83;;;1.50;99.90;;;;;;4994813;28;20190;-77
2021/12/21 04:28:30;;;;;;;4.70;2.90;;;1.50;99.90;;;;;;5013276;28;20175;-77
2021/12/21 04:30:56;;;;;;;3.13;2.33;;;1.50;99.90;;;;;;5013212;28;20615;-78
2021/12/21 04:33:22;;;;;;;3.97;2.00;;;1.50;99.90;;;;;;5013022;28;20503;-77
2021/12/21 04:35:48;;;;;;;4.27;2.17;;;1.50;99.90;;;;;;4994529;28;20221;-78
2021/12/21 04:38:21;;;;;;;4.30;2.40;;;1.50;99.90;;;;;;5011601;28;20199;-77
2021/12/21 04:40:58;;;;;;;4.45;3.08;;;1.50;99.90;;;;;;4995484;28;20223;-78
2021/12/21 04:43:23;;;;;;;5.43;2.45;;;1.40;99.90;;;;;;5012860;28;20171;-77
2021/12/21 04:45:49;;;;;;;3.53;2.30;;;1.50;99.90;;;;;;5012620;28;20280;-77
2021/12/21 04:48:15;;;;;;;3.92;2.75;;;1.50;99.90;;;;;;4995694;28;20204;-77
2021/12/21 04:50:42;;;;;;;7.30;2.80;;;1.40;99.90;;;;;;5012519;28;20178;-78
2021/12/21 04:53:08;;;;;;;3.17;2.40;;;1.40;99.90;;;;;;4995050;28;20605;-78
2021/12/21 04:55:34;;;;;;;3.10;2.80;;;1.40;99.90;;;;;;5012174;28;20210;-78
2021/12/21 04:58:00;;;;;;;4.82;2.53;;;1.40;99.90;;;;;;5012460;28;20623;-78
2021/12/21 05:00:26;;;;;;;6.50;2.65;;;1.40;99.90;;;;;;4995050;28;20190;-77
2021/12/21 05:02:52;;;;;;;3.43;3.10;;;1.40;99.90;;;;;;4978951;28;20253;-77
2021/12/21 05:05:18;;;;;;;3.30;2.57;;;1.40;99.90;;;;;;5010675;28;20613;-77
2021/12/21 05:07:48;;;;;;;5.80;3.27;;;1.40;99.90;;;;;;5012755;28;20573;-77
2021/12/21 05:10:14;;;;;;;4.65;3.33;;;1.40;99.90;;;;;;5012594;28;20190;-77
2021/12/21 05:12:40;;;;;;;2.90;2.05;;;1.50;99.90;;;;;;5011103;28;20186;-77
2021/12/21 05:15:07;;;;;;;5.60;3.00;;;1.50;99.90;;;;;;4994464;28;20202;-77
2021/12/21 05:17:33;;;;;;;8.27;2.95;;;1.40;99.90;;;;;;5012634;28;20922;-78
2021/12/21 05:19:59;;;;;;;4.05;3.33;;;1.50;99.90;;;;;;4995363;28;20257;-77
2021/12/21 05:22:25;;;;;;;4.47;2.70;;;1.40;99.90;;;;;;5012800;28;20194;-77
2021/12/21 05:24:53;;;;;;;4.70;2.50;;;1.40;99.90;;;;;;4994700;28;20217;-77
2021/12/21 05:27:19;;;;;;;4.30;3.05;;;1.40;99.90;;;;;;4994306;28;20572;-78
2021/12/21 05:29:45;;;;;;;3.45;2.25;;;1.40;99.90;;;;;;5012073;28;20170;-78
2021/12/21 05:32:11;;;;;;;4.30;3.17;;;1.30;99.90;;;;;;5012026;28;20185;-78
2021/12/21 05:34:37;;;;;;;3.30;2.73;;;1.30;99.90;;;;;;5011762;28;20957;-77
2021/12/21 05:37:06;;;;;;;5.83;2.50;;;1.30;99.90;;;;;;5011432;28;20612;-78
2021/12/21 05:39:42;;;;;;;4.35;2.78;;;1.30;99.90;;;;;;4994399;28;20198;-78
2021/12/21 05:42:08;;;;;;;3.75;2.50;;;1.30;99.90;;;;;;4994428;28;20178;-77
2021/12/21 05:44:34;;;;;;;4.70;2.53;;;1.30;99.90;;;;;;5011601;28;20166;-78
2021/12/21 05:47:00;;;;;;;3.07;2.37;;;1.30;99.90;;;;;;4993704;28;20223;-78
2021/12/21 05:49:25;;;;;;;3.47;2.17;;;1.30;99.90;;;;;;4994676;28;20232;-79
2021/12/21 05:51:52;;;;;;;3.57;2.47;;;1.30;99.90;;;;;;4994543;28;20171;-78
2021/12/21 05:54:21;;;;;;;4.18;2.70;;;1.30;99.90;;;;;;5011590;28;20174;-78
2021/12/21 05:56:47;;;;;;;2.58;2.33;;;1.30;99.90;;;;;;5011420;28;20198;-78
2021/12/21 05:59:14;;;;;;;4.10;1.90;;;1.40;99.90;;;;;;4994027;28;20190;-78
2021/12/21 06:01:40;;;;;;;4.10;2.80;;;1.40;99.90;;;;;;5011828;28;20247;-78
2021/12/21 06:04:06;;;;;;;4.30;2.53;;;1.30;99.90;;;;;;5011706;28;20201;-78
2021/12/21 06:06:32;;;;;;;4.90;2.53;;;1.30;99.90;;;;;;5011539;28;21034;-78
2021/12/21 06:09:01;;;;;;;2.75;2.15;;;1.30;99.90;;;;;;4994075;28;20264;-78
2021/12/21 06:11:27;;;;;;;3.85;2.97;;;1.30;99.90;;;;;;5015596;28;20178;-79
2021/12/21 06:25:22;;;;;;;3.92;2.20;;;1.20;99.90;;;;;;4997728;28;20182;-78
2021/12/21 06:27:37;;;;;;;3.35;2.40;;;1.20;99.90;;;;;;5015510;28;20174;-78
2021/12/21 06:30:04;;;;;;;3.63;2.25;;;1.20;99.90;;;;;;5015397;28;20185;-78
2021/12/21 06:32:30;;;;;;;4.05;2.67;;;1.20;99.90;;;;;;4997588;28;20166;-78
2021/12/21 06:34:55;;;;;;;3.20;2.17;;;1.20;99.90;;;;;;4997488;28;20201;-78
2021/12/21 06:37:22;;;;;;;3.42;2.80;;;1.20;99.90;;;;;;4997506;28;20574;-77
2021/12/21 06:39:48;;;;;;;4.38;2.75;;;1.20;99.90;;;;;;5013863;28;20209;-78
2021/12/21 06:42:14;;;;;;;4.45;2.05;;;1.20;99.90;;;;;;5014222;28;20162;-78
2021/12/21 06:44:43;;;;;;;4.00;3.17;;;1.20;99.90;;;;;;4981115;28;20536;-78
2021/12/21 06:52:25;;;;;;;4.03;2.75;;;1.20;99.90;;;;;;5015703;28;20251;-80
2021/12/21 06:54:51;;;;;;;4.68;2.30;;;1.20;99.90;;;;;;4981076;28;20264;-79
2021/12/21 06:57:16;;;;;;;4.40;2.50;;;1.20;99.90;;;;;;4997246;28;20202;-79
2021/12/21 06:59:42;;;;;;;5.13;2.73;;;1.30;99.90;;;;;;5014724;28;20291;-79
2021/12/21 07:02:08;;;;;;;4.80;3.50;;;1.30;99.90;;;;;;5015189;28;20198;-78
2021/12/21 07:04:34;;;;;;;4.20;2.80;;;1.30;99.90;;;;;;5013081;28;20643;-78
2021/12/21 07:07:00;;;;;;;5.18;2.88;;;1.30;99.90;;;;;;5012611;28;20184;-78
2021/12/21 07:09:41;;;;;;;3.28;2.00;;;1.30;99.90;;;;;;4997132;28;20174;-78
2021/12/21 07:20:11;;;;;;;4.72;2.72;;;1.20;99.90;;;;;;5014393;28;20170;-76
2021/12/21 07:22:37;;;;;;;4.67;2.67;;;1.20;99.90;;;;;;5013964;28;20185;-77
2021/12/21 07:25:03;;;;;;;4.13;2.37;;;1.20;99.90;;;;;;4996763;28;20201;-77
2021/12/21 07:27:30;;;;;;;4.55;2.70;;;1.20;99.90;;;;;;4996527;28;20549;-77
2021/12/21 07:29:55;;;;;;;7.90;2.83;;;1.10;99.90;;;;;;5013697;28;20174;-77
2021/12/21 07:32:21;;;;;;;5.63;2.60;;;1.10;99.90;;;;;;4996365;28;20253;-77
2021/12/21 07:34:47;;;;;;;4.90;2.90;;;1.10;99.90;;;;;;4996077;28;20745;-77
2021/12/21 07:37:12;;;;;;;4.20;2.67;;;1.10;99.90;;;;;;5027993;22;21065;-76
2021/12/21 07:39:39;;;;;;;4.20;3.13;;;1.00;99.90;;;;;;5013267;28;20209;-77
2021/12/21 07:42:05;;;;;;;4.68;2.53;;;1.00;99.90;;;;;;4996332;28;20171;-77
2021/12/21 07:44:32;;;;;;;5.00;2.90;;;1.00;99.90;;;;;;4995929;28;20193;-77
2021/12/21 07:46:58;;;;;;;5.47;3.30;;;1.10;99.90;;;;;;5011972;28;20537;-77
2021/12/21 07:49:24;;;;;;;4.03;3.20;;;1.10;99.90;;;;;;4995390;28;20183;-77
2021/12/21 07:51:50;;;;;;;6.77;3.07;;;1.10;99.90;;;;;;5013532;28;20542;-78
2021/12/21 07:54:17;;;;;;;5.05;3.00;;;1.10;99.90;;;;;;4995059;28;20938;-78
2021/12/21 07:56:44;;;;;;;5.88;3.42;;;1.10;99.90;;;;;;5012663;28;20201;-77
2021/12/21 07:59:11;;;;;;;3.22;2.40;;;1.20;99.90;;;;;;4995435;28;20201;-78
2021/12/21 08:01:38;;;;;;;4.97;3.00;;;1.20;99.90;;;;;;4992674;28;20181;-77
2021/12/21 08:04:07;;;;;;;3.67;2.05;;;1.20;99.90;;;;;;4991684;28;20167;-77
2021/12/21 08:06:34;;;;;;;5.00;2.63;;;1.30;99.90;;;;;;5005609;28;20205;-77
2021/12/21 08:09:01;;;;;;;4.85;3.42;;;1.20;99.90;;;;;;5012574;28;20174;-76
2021/12/21 08:14:04;;;;;;;4.90;3.25;;;1.30;99.90;;;;;;5012813;28;20174;-77
2021/12/21 08:16:30;;;;;;;5.68;3.22;;;1.30;99.90;;;;;;4994951;28;20202;-76
2021/12/21 08:18:57;;;;;;;3.40;2.22;;;1.30;99.90;;;;;;5013008;28;20199;-76
2021/12/21 08:21:24;;;;;;;9.37;3.27;;;1.30;99.90;;;;;;5013435;28;20171;-76
2021/12/21 08:23:50;;;;;;;6.65;2.80;;;1.40;99.90;;;;;;5014882;28;20601;-75
2021/12/21 08:26:16;;;;;;;6.33;3.23;;;1.50;99.90;;;;;;5004590;28;20190;-74
2021/12/21 08:28:43;;;;;;;5.80;3.20;;;1.50;99.90;;;;;;5020291;28;20672;-75
2021/12/21 08:31:11;;;;;;;4.85;3.35;;;1.50;99.90;;;;;;5022780;28;20174;-76
2021/12/21 08:33:38;;;;;;;6.20;3.53;;;1.50;99.90;;;;;;5028044;28;20171;-76
2021/12/21 08:36:08;;;;;;;4.93;2.95;;;1.50;99.90;;;;;;5018229;28;20198;-75
2021/12/21 08:38:37;;;;;;;5.25;3.03;;;1.60;99.90;;;;;;4978964;28;20206;-76
2021/12/21 08:41:04;;;;;;;5.25;3.25;;;1.70;99.90;;;;;;4978640;28;20182;-76
2021/12/21 08:43:32;;;;;;;8.00;3.63;;;1.70;99.90;;;;;;5011031;28;20170;-76
2021/12/21 08:45:59;;;;;;;4.80;2.88;;;1.80;99.90;;;;;;5012249;28;20221;-75
2021/12/21 08:48:26;;;;;;;10.05;3.97;;;1.80;99.90;;;;;;5011033;28;20232;-76
2021/12/21 08:50:54;;;;;;;5.80;3.20;;;1.80;99.90;;;;;;5012628;28;20178;-75
2021/12/21 08:53:21;;;;;;;6.13;3.58;;;1.80;99.90;;;;;;5011646;28;20178;-77
2021/12/21 08:55:47;;;;;;;4.60;3.00;;;1.90;99.90;;;;;;4993827;28;20166;-74
2021/12/21 08:58:14;;;;;;;7.27;4.03;;;1.90;99.90;;;;;;4994209;28;20214;-75
2021/12/21 09:00:40;;;;;;;5.28;3.05;;;1.90;99.90;;;;;;4994154;28;20918;-77
2021/12/21 09:03:07;;;;;;;6.85;3.05;;;1.90;99.90;;;;;;4994302;28;20209;-77
2021/12/21 09:05:34;;;;;;;3.40;2.85;;;2.00;99.90;;;;;;5011418;28;20196;-78
2021/12/21 09:08:04;;;;;;;5.53;3.70;;;2.00;99.90;;;;;;5011665;28;20194;-77
2021/12/21 09:10:31;;;;;;;5.18;2.70;;;2.10;99.90;;;;;;4986391;28;20179;-77
2021/12/21 09:12:58;;;;;;;5.65;2.35;;;2.10;99.90;;;;;;4992911;28;20604;-77
2021/12/21 09:15:25;;;;;;;5.00;2.95;;;2.20;99.90;;;;;;4992220;28;20178;-77
2021/12/21 09:17:51;;;;;;;11.55;2.88;;;2.20;99.90;;;;;;4975026;28;20284;-75
2021/12/21 09:20:20;;;;;;;3.63;3.33;;;2.30;99.90;;;;;;4992361;28;20163;-75
2021/12/21 09:22:47;;;;;;;5.07;2.42;;;2.30;99.90;;;;;;4992060;28;20167;-75
2021/12/21 09:25:14;;;;;;;8.73;3.40;;;2.30;99.90;;;;;;4974304;28;20826;-76
2021/12/21 09:27:40;;;;;;;5.13;2.40;;;2.40;99.90;;;;;;4958338;28;20195;-75
2021/12/21 09:30:09;;;;;;;3.53;2.60;;;2.50;99.90;;;;;;4958544;28;20194;-74
2021/12/21 09:32:35;;;;;;;3.50;2.75;;;2.60;99.90;;;;;;4974497;28;20175;-74
2021/12/21 09:35:04;;;;;;;5.50;2.90;;;2.60;99.90;;;;;;4991049;28;20669;-75
2021/12/21 09:37:31;;;;;;;7.85;3.10;;;2.70;99.90;;;;;;4974338;28;20624;-75
2021/12/21 09:39:57;;;;;;;4.00;2.50;;;2.70;99.90;;;;;;4991918;28;20203;-74
2021/12/21 09:42:29;;;;;;;5.00;2.40;;;2.80;99.90;;;;;;4974594;28;20198;-75
2021/12/21 09:44:57;;;;;;;3.33;2.33;;;2.80;99.90;;;;;;5000162;28;21171;-75
2021/12/21 09:47:23;;;;;;;4.90;2.50;;;2.90;99.90;;;;;;4993731;28;20196;-74
2021/12/21 09:49:50;;;;;;;5.40;2.63;;;2.90;99.90;;;;;;4993993;28;20626;-75
2021/12/21 09:52:23;;;;;;;3.65;1.80;;;2.90;99.90;;;;;;4977817;28;20561;-75
2021/12/21 09:54:49;;;;;;;5.05;2.45;;;2.90;99.90;;;;;;4993130;28;20657;-74
2021/12/21 09:57:17;;;;;;;5.25;2.50;;;3.00;99.90;;;;;;4993445;28;20217;-76
2021/12/21 09:59:48;;;;;;;3.30;2.70;;;3.00;99.90;;;;;;4994175;28;20213;-76
2021/12/21 10:02:17;;;;;;;5.05;2.25;;;3.10;99.90;;;;;;5010928;28;20208;-75
2021/12/21 10:04:49;;;;;;;6.25;2.75;;;3.10;99.90;;;;;;4988655;28;20262;-75
2021/12/21 10:07:15;;;;;;;3.50;1.90;;;3.20;99.90;;;;;;4989752;28;20230;-76
2021/12/21 10:09:43;;;;;;;4.30;2.20;;;3.30;99.90;;;;;;4987786;28;20174;-75
2021/12/21 10:12:30;;;;;;;4.53;2.30;;;3.30;99.90;;;;;;4993756;28;20263;-74
2021/12/21 10:15:07;;;;;;;4.50;2.47;;;3.30;99.90;;;;;;5009868;28;20170;-74
2021/12/21 10:17:35;;;;;;;4.28;1.95;;;3.40;99.90;;;;;;4993995;28;20193;-75
2021/12/21 10:20:09;;;;;;;3.53;2.75;;;3.40;99.90;;;;;;4993395;28;20187;-73
2021/12/21 10:22:35;;;;;;;4.13;3.33;;;3.40;99.90;;;;;;4991633;28;20171;-74
2021/12/21 10:25:01;;;;;;;7.82;2.85;;;3.40;99.90;;;;;;4991066;28;20181;-75
2021/12/21 10:27:27;;;;;;;5.85;3.75;;;3.30;99.90;;;;;;4991024;28;20265;-76
2021/12/21 10:29:59;;;;;;;6.13;3.30;;;3.30;99.90;;;;;;4991578;28;20754;-75
2021/12/21 10:32:28;;;;;;;5.35;2.90;;;3.30;99.90;;;;;;4991542;28;20929;-75
2021/12/21 10:35:28;;;;;;;5.95;3.45;;;3.30;99.90;;;;;;4974314;28;20531;-76
2021/12/21 10:37:54;;;;;;;6.28;3.78;;;3.40;99.90;;;;;;4978963;28;20198;-75
2021/12/21 10:40:27;;;;;;;4.20;2.60;;;3.40;99.90;;;;;;5009719;28;20173;-76
2021/12/21 10:42:54;;;;;;;3.65;2.10;;;3.50;99.90;;;;;;5009505;28;21139;-76
2021/12/21 10:45:30;;;;;;;3.20;1.73;;;3.60;99.90;;;;;;5009349;28;20626;-77
2021/12/21 10:47:58;;;;;;;2.97;1.73;;;3.70;99.90;;;;;;5011109;28;20197;-75
2021/12/21 10:50:24;;;;;;;3.13;2.20;;;3.70;99.90;;;;;;4993420;28;20643;-76
2021/12/21 10:52:57;;;;;;;5.60;1.83;;;3.80;99.90;;;;;;4976798;28;20178;-76
2021/12/21 10:55:31;;;;;;;5.43;3.00;;;3.80;99.90;;;;;;5010425;28;20543;-76
2021/12/21 10:58:20;;;;;;;3.88;2.20;;;3.90;99.90;;;;;;5014105;28;20252;-76
2021/12/21 11:00:52;;;;;;;4.03;2.17;;;3.90;99.90;;;;;;5013684;28;20240;-76
2021/12/21 11:03:35;;;;;;;3.15;1.95;;;3.90;99.90;;;;;;4996840;28;20217;-75
2021/12/21 11:06:13;;;;;;;2.72;1.77;;;4.00;99.90;;;;;;5013814;28;20194;-76
2021/12/21 11:08:41;;;;;;;2.97;1.83;;;4.10;99.90;;;;;;5012711;28;20178;-76
2021/12/21 11:11:18;;;;;;;4.07;2.50;;;4.10;99.90;;;;;;4996846;28;20171;-77
2021/12/21 11:13:44;;;;;;;5.15;1.80;;;4.20;99.90;;;;;;5014085;28;20166;-77
2021/12/21 11:16:09;;;;;;;3.40;2.17;;;4.30;99.90;;;;;;5013262;28;20237;-76
2021/12/21 11:18:37;;;;;;;2.63;2.10;;;4.30;99.90;;;;;;5014549;28;20217;-77
2021/12/21 11:21:06;;;;;;;4.25;2.58;;;4.30;99.90;;;;;;4980043;28;20581;-78
2021/12/21 11:23:34;;;;;;;6.13;2.47;;;4.30;99.90;;;;;;5014154;28;20173;-78
2021/12/21 11:26:02;;;;;;;4.43;1.95;;;4.30;99.90;;;;;;5011875;28;20595;-77
2021/12/21 11:28:29;;;;;;;3.03;2.03;;;4.30;99.90;;;;;;4996322;28;20233;-79
2021/12/21 11:31:00;;;;;;;3.85;2.13;;;4.30;99.90;;;;;;4996200;28;20186;-77
2021/12/21 11:33:29;;;;;;;3.90;2.50;;;4.30;99.90;;;;;;5013952;28;20261;-76
2021/12/21 11:38:43;;;;;;;4.18;2.17;;;4.40;99.90;;;;;;5016946;28;20198;-76
2021/12/21 11:41:09;;;;;;;2.33;1.70;;;4.40;99.90;;;;;;5013557;28;20162;-76
2021/12/21 11:43:45;;;;;;;2.65;1.70;;;4.50;99.90;;;;;;4993567;28;20265;-76
2021/12/21 11:46:14;;;;;;;5.03;2.88;;;4.50;99.90;;;;;;4996020;28;20202;-76
2021/12/21 11:48:59;;;;;;;5.00;2.95;;;4.60;99.90;;;;;;4995980;28;20178;-76
2021/12/21 11:51:27;;;;;;;3.22;2.28;;;4.60;99.90;;;;;;4976758;28;20175;-77
2021/12/21 11:53:54;;;;;;;6.72;2.33;;;4.50;99.90;;;;;;4993652;28;20188;-77
2021/12/21 11:56:24;;;;;;;3.15;2.33;;;4.60;99.90;;;;;;4995133;28;20190;-76
2021/12/21 11:58:52;;;;;;;4.22;1.95;;;4.60;99.90;;;;;;4996029;28;20242;-77
2021/12/21 12:01:25;;;;;;;2.70;1.60;;;4.60;99.90;;;;;;5013690;28;20253;-80
2021/12/21 12:04:00;;;;;;;5.18;1.95;;;4.70;99.90;;;;;;5013111;28;20614;-78
2021/12/21 12:06:41;;;;;;;3.25;1.65;;;4.70;99.90;;;;;;4995398;28;20194;-78
2021/12/21 12:09:06;;;;;;;2.90;1.60;;;4.70;99.90;;;;;;4978849;28;20593;-78
2021/12/21 12:11:39;;;;;;;4.40;1.67;;;4.70;99.90;;;;;;4995801;28;20217;-75
2021/12/21 12:14:28;;;;;;;4.95;1.52;;;4.70;99.90;;;;;;5000492;28;20178;-78
2021/12/21 12:17:05;;;;;;;5.85;2.47;;;4.80;99.90;;;;;;5012495;28;20265;-79
2021/12/21 12:19:35;;;;;;;5.80;2.30;;;4.80;99.90;;;;;;4996924;28;20248;-79
2021/12/21 12:22:07;;;;;;;5.60;2.30;;;4.80;99.90;;;;;;5013136;28;20194;-78
2021/12/21 12:24:34;;;;;;;4.03;2.30;;;4.80;99.90;;;;;;4979203;28;20235;-79
2021/12/21 12:27:07;;;;;;;4.40;1.75;;;4.80;99.90;;;;;;5012039;28;20594;-74
2021/12/21 12:29:43;;;;;;;6.50;1.95;;;4.80;99.90;;;;;;5013125;28;20174;-77
2021/12/21 12:32:08;;;;;;;3.40;1.80;;;4.70;99.90;;;;;;5012785;28;20202;-78
2021/12/21 12:34:36;;;;;;;3.80;2.30;;;4.80;99.90;;;;;;4995080;28;20642;-77
2021/12/21 12:37:17;;;;;;;3.35;1.90;;;4.90;99.90;;;;;;4994313;28;20222;-79
2021/12/21 12:39:46;;;;;;;3.35;2.53;;;4.90;99.90;;;;;;4979053;28;20215;-80
2021/12/21 12:42:19;;;;;;;3.42;1.70;;;4.90;99.90;;;;;;4995313;28;20261;-76
2021/12/21 12:44:45;;;;;;;3.63;1.80;;;4.90;99.90;;;;;;4995410;28;20181;-76
2021/12/21 12:47:14;;;;;;;4.57;2.72;;;4.90;99.90;;;;;;4994446;28;20189;-76
2021/12/21 12:49:54;;;;;;;2.70;1.80;;;5.00;99.90;;;;;;4979187;28;20209;-76
2021/12/21 12:52:27;;;;;;;4.43;2.28;;;5.00;99.90;;;;;;5015912;28;20170;-76
2021/12/21 12:54:56;;;;;;;4.25;3.00;;;5.00;99.90;;;;;;5013017;28;20166;-77
2021/12/21 12:57:36;;;;;;;6.63;2.72;;;5.00;99.90;;;;;;5011834;28;20198;-76
2021/12/21 13:00:34;;;;;;;3.85;1.92;;;5.00;99.90;;;;;;4962935;28;20237;-76
2021/12/21 13:03:06;;;;;;;3.08;1.63;;;5.00;99.90;;;;;;4952224;28;20205;-76
2021/12/21 13:05:38;;;;;;;5.15;1.45;;;5.00;99.90;;;;;;5013106;28;20163;-76
2021/12/21 13:08:13;;;;;;;3.10;1.40;;;5.10;99.90;;;;;;4980577;28;20206;-76
2021/12/21 13:10:42;;;;;;;5.38;1.70;;;5.10;99.90;;;;;;5013088;28;20197;-76
2021/12/21 13:13:08;;;;;;;5.05;2.40;;;5.20;99.90;;;;;;5011637;28;20170;-76
2021/12/21 13:15:50;;;;;;;3.30;1.60;;;5.30;99.90;;;;;;5011960;28;20170;-75
2021/12/21 13:18:18;;;;;;;6.38;2.85;;;5.30;99.90;;;;;;4978305;28;20205;-76
2021/12/21 13:20:47;;;;;;;5.45;1.58;;;5.30;99.90;;;;;;5010877;28;20253;-76
2021/12/21 13:23:17;;;;;;;3.88;1.63;;;5.30;99.90;;;;;;4994944;28;20189;-75
2021/12/21 13:26:12;;;;;;;3.15;2.40;;;5.30;99.90;;;;;;4978365;28;20638;-76
2021/12/21 13:28:50;;;;;;;5.18;2.63;;;5.30;99.90;;;;;;5011449;28;20612;-75
2021/12/21 13:31:18;;;;;;;2.30;1.73;;;5.40;99.90;;;;;;5011786;28;20171;-76
2021/12/21 13:33:50;;;;;;;2.65;1.73;;;5.40;99.90;;;;;;4978008;28;20174;-76
2021/12/21 13:36:16;;;;;;;3.58;1.63;;;5.40;99.90;;;;;;4993668;28;20751;-76
2021/12/21 13:38:41;;;;;;;3.00;1.47;;;5.40;99.90;;;;;;5013191;23;20245;-78
2021/12/21 13:41:14;;;;;;;3.00;1.60;;;5.40;99.90;;;;;;4990907;28;20554;-79
2021/12/21 13:43:53;;;;;;;3.38;1.85;;;5.50;99.90;;;;;;4990728;28;20171;-78
2021/12/21 13:46:20;;;;;;;8.02;4.82;;;5.50;99.90;;;;;;4990207;28;20174;-78
2021/12/21 13:48:55;;;;;;;4.53;2.65;;;5.50;99.90;;;;;;4990909;28;20187;-79
2021/12/21 13:51:22;;;;;;;6.00;2.88;;;5.60;99.90;;;;;;4991111;28;20528;-78
2021/12/21 13:53:51;;;;;;;3.53;2.25;;;5.60;99.90;;;;;;4994252;28;20179;-80
2021/12/21 13:56:25;;;;;;;4.90;2.22;;;5.60;99.90;;;;;;4994484;28;20639;-79
2021/12/21 13:58:54;;;;;;;3.42;1.50;;;5.70;99.90;;;;;;4990467;28;20586;-77
2021/12/21 14:01:26;;;;;;;2.60;1.20;;;5.70;99.90;;;;;;4991959;28;20509;-79
2021/12/21 14:04:05;;;;;;;3.20;1.42;;;5.70;99.90;;;;;;4974217;28;20528;-80
2021/12/21 14:06:31;;;;;;;3.22;1.48;;;5.70;99.90;;;;;;4990832;28;20508;-81
2021/12/21 14:09:00;;;;;;;2.83;1.20;;;5.70;99.90;;;;;;4974458;28;20229;-79